createdAt,value
2018-03-01T00:01:31.195Z,-3.24
2018-03-01T00:04:02.625Z,-3.22
2018-03-01T00:06:40.483Z,-3.25
2018-03-01T00:09:12.669Z,-3.12
2018-03-01T00:11:44.224Z,-3.11
2018-03-01T00:14:15.664Z,-3.20
2018-03-01T00:16:47.747Z,-3.23
2018-03-01T00:19:19.585Z,-3.19
2018-03-01T00:21:54.167Z,-3.23
2018-03-01T00:24:26.755Z,-3.28
2018-03-01T00:26:59.108Z,-3.30
2018-03-01T00:29:31.691Z,-3.16
2018-03-01T00:32:05.514Z,-3.18
2018-03-01T00:34:37.859Z,-3.24
2018-03-01T00:37:11.048Z,-3.10
2018-03-01T00:39:47.345Z,-3.15
2018-03-01T00:42:25.550Z,-3.28
2018-03-01T00:44:57.716Z,-3.21
2018-03-01T00:47:31.054Z,-3.16
2018-03-01T00:50:05.639Z,-3.14
2018-03-01T00:52:37.455Z,-3.06
2018-03-01T00:55:09.789Z,-3.14
2018-03-01T00:57:44.481Z,-3.18
2018-03-01T01:00:20.057Z,-3.13
2018-03-01T01:02:51.982Z,-3.25
2018-03-01T01:05:28.412Z,-3.22
2018-03-01T01:10:56.401Z,-3.44
2018-03-01T01:13:30.071Z,-3.31
2018-03-01T01:16:02.773Z,-3.28
2018-03-01T01:18:35.710Z,-3.33
2018-03-01T01:21:11.151Z,-3.29
2018-03-01T01:23:51.410Z,-3.28
2018-03-01T01:26:25.798Z,-3.29
2018-03-01T01:28:58.071Z,-3.35
2018-03-01T01:31:29.313Z,-3.31
2018-03-01T01:34:01.514Z,-3.28
2018-03-01T01:36:33.440Z,-3.26
2018-03-01T01:39:06.691Z,-3.28
2018-03-01T01:41:41.636Z,-3.39
2018-03-01T01:44:22.029Z,-3.42
2018-03-01T01:46:56.008Z,-3.42
2018-03-01T01:49:27.053Z,-3.34
2018-03-01T01:51:59.368Z,-3.30
2018-03-01T01:54:31.179Z,-3.28
2018-03-01T01:57:03.135Z,-3.27
2018-03-01T01:59:37.951Z,-3.35
2018-03-01T02:02:11.495Z,-3.26
2018-03-01T02:04:44.482Z,-3.23
2018-03-01T02:07:17.475Z,-3.36
2018-03-01T02:09:50.388Z,-3.34
2018-03-01T02:12:37.852Z,-3.33
2018-03-01T02:15:15.871Z,-3.22
2018-03-01T02:18:00.004Z,-3.25
2018-03-01T02:23:39.263Z,-3.05
2018-03-01T02:29:47.441Z,-3.31
2018-03-01T02:32:20.093Z,-3.29
2018-03-01T02:41:50.124Z,-3.31
2018-03-01T02:44:50.014Z,-3.34
2018-03-01T02:47:25.766Z,-3.47
2018-03-01T02:49:57.839Z,-3.44
2018-03-01T02:52:30.589Z,-3.49
2018-03-01T02:55:02.961Z,-3.47
2018-03-01T02:57:36.519Z,-3.50
2018-03-01T03:00:18.417Z,-3.54
2018-03-01T03:02:50.463Z,-3.48
2018-03-01T03:05:22.177Z,-3.41
2018-03-01T03:07:55.650Z,-3.46
2018-03-01T03:10:28.979Z,-3.45
2018-03-01T03:13:00.415Z,-3.53
2018-03-01T03:15:33.055Z,-3.33
2018-03-01T03:18:05.483Z,-3.33
2018-03-01T03:20:37.618Z,-3.32
2018-03-01T03:23:10.176Z,-3.29
2018-03-01T03:25:55.981Z,-3.36
2018-03-01T03:28:27.001Z,-3.27
2018-03-01T03:30:59.699Z,-3.40
2018-03-01T03:33:32.512Z,-3.34
2018-03-01T03:36:06.002Z,-3.26
2018-03-01T03:38:37.435Z,-3.26
2018-03-01T03:41:08.429Z,-3.28
2018-03-01T03:43:40.830Z,-3.05
2018-03-01T03:46:20.152Z,-3.13
2018-03-01T03:48:52.455Z,-3.13
2018-03-01T03:51:26.890Z,-3.24
2018-03-01T03:53:58.095Z,-3.16
2018-03-01T03:56:30.905Z,-3.14
2018-03-01T03:59:02.813Z,-3.12
2018-03-01T04:04:37.295Z,-3.18
2018-03-01T04:09:45.807Z,-3.24
2018-03-01T04:12:17.276Z,-3.27
2018-03-01T04:14:55.875Z,-3.29
2018-03-01T04:17:28.620Z,-3.28
2018-03-01T04:20:00.147Z,-3.25
2018-03-01T04:22:32.282Z,-3.29
2018-03-01T04:25:03.494Z,-3.29
2018-03-01T04:27:39.703Z,-3.28
2018-03-01T04:30:15.555Z,-3.21
2018-03-01T04:32:48.384Z,-3.42
2018-03-01T04:35:25.769Z,-3.22
2018-03-01T04:37:57.590Z,-3.25
2018-03-01T04:40:29.070Z,-3.19
2018-03-01T04:43:06.986Z,-3.10
2018-03-01T04:45:38.457Z,-3.08
2018-03-01T04:48:09.284Z,-2.97
2018-03-01T04:50:40.404Z,-3.10
2018-03-01T04:53:11.955Z,-3.20
2018-03-01T04:55:43.439Z,-3.16
2018-03-01T04:58:14.155Z,-3.14
2018-03-01T05:00:45.622Z,-3.00
2018-03-01T05:03:16.768Z,-2.92
2018-03-01T05:05:49.271Z,-2.95
2018-03-01T05:08:24.873Z,-2.96
2018-03-01T05:10:59.385Z,-2.96
2018-03-01T05:13:30.697Z,-2.95
2018-03-01T05:16:02.704Z,-2.97
2018-03-01T05:18:35.491Z,-2.93
2018-03-01T05:21:11.987Z,-2.93
2018-03-01T05:23:43.525Z,-2.95
2018-03-01T05:26:14.637Z,-2.90
2018-03-01T05:28:46.509Z,-2.80
2018-03-01T05:31:18.774Z,-2.85
2018-03-01T05:33:55.707Z,-2.71
2018-03-01T05:36:27.213Z,-2.84
2018-03-01T05:38:58.737Z,-2.92
2018-03-01T05:41:29.534Z,-2.96
2018-03-01T05:49:19.572Z,-2.95
2018-03-01T05:51:51.567Z,-2.88
2018-03-01T05:54:24.529Z,-2.80
2018-03-01T05:56:57.437Z,-2.89
2018-03-01T05:59:28.768Z,-2.92
2018-03-01T06:02:00.580Z,-2.84
2018-03-01T06:04:31.928Z,-2.88
2018-03-01T06:07:13.863Z,-2.83
2018-03-01T06:09:46.019Z,-2.89
2018-03-01T06:12:17.885Z,-2.94
2018-03-01T06:14:50.104Z,-2.85
2018-03-01T06:17:23.034Z,-2.85
2018-03-01T06:20:05.349Z,-2.92
2018-03-01T06:22:38.078Z,-2.82
2018-03-01T06:25:09.623Z,-2.89
2018-03-01T06:28:21.769Z,-2.84
2018-03-01T06:31:19.256Z,-3.01
2018-03-01T06:33:53.502Z,-2.84
2018-03-01T06:36:26.006Z,-2.86
2018-03-01T06:38:59.304Z,-2.81
2018-03-01T06:41:31.641Z,-2.81
2018-03-01T06:44:19.106Z,-2.88
2018-03-01T06:47:00.047Z,-2.86
2018-03-01T06:49:34.572Z,-2.83
2018-03-01T06:52:08.627Z,-2.75
2018-03-01T06:54:49.024Z,-2.63
2018-03-01T06:57:25.521Z,-2.64
2018-03-01T07:00:18.252Z,-2.73
2018-03-01T07:02:56.966Z,-2.53
2018-03-01T07:05:30.168Z,-2.42
2018-03-01T07:08:01.730Z,-2.36
2018-03-01T07:10:34.108Z,-2.42
2018-03-01T07:13:06.857Z,-2.43
2018-03-01T07:15:40.228Z,-2.36
2018-03-01T07:18:14.920Z,-2.23
2018-03-01T07:23:25.464Z,-2.46
2018-03-01T07:25:57.150Z,-2.36
2018-03-01T07:31:30.995Z,-2.16
2018-03-01T07:34:18.867Z,-2.01
2018-03-01T07:37:11.216Z,-1.88
2018-03-01T07:39:46.410Z,-1.89
2018-03-01T07:42:17.784Z,-1.88
2018-03-01T07:44:48.703Z,-1.93
2018-03-01T07:47:25.717Z,-1.71
2018-03-01T07:52:37.581Z,-1.65
2018-03-01T07:55:10.252Z,-1.73
2018-03-01T07:57:45.062Z,-1.78
2018-03-01T08:00:25.031Z,-1.64
2018-03-01T08:03:02.979Z,-1.65
2018-03-01T08:05:37.664Z,-1.55
2018-03-01T08:08:14.700Z,-1.47
2018-03-01T08:10:48.964Z,-1.36
2018-03-01T08:13:31.313Z,-1.51
2018-03-01T08:16:17.164Z,-1.59
2018-03-01T08:18:52.736Z,-1.53
2018-03-01T08:21:28.084Z,-1.48
2018-03-01T08:29:12.624Z,-1.49
2018-03-01T08:31:55.667Z,-1.41
2018-03-01T08:34:32.311Z,-1.24
2018-03-01T08:37:06.692Z,-1.28
2018-03-01T08:39:42.934Z,-0.78
2018-03-01T08:42:15.439Z,-0.75
2018-03-01T08:44:48.254Z,-0.79
2018-03-01T08:47:21.985Z,-0.72
2018-03-01T08:50:15.300Z,0.12
2018-03-01T08:52:51.428Z,0.68
2018-03-01T08:55:32.434Z,0.99
2018-03-01T08:58:25.806Z,1.02
2018-03-01T09:01:07.618Z,1.13
2018-03-01T09:03:47.061Z,0.98
2018-03-01T09:06:34.417Z,1.17
2018-03-01T09:09:31.772Z,1.51
2018-03-01T09:12:12.501Z,1.31
2018-03-01T09:14:47.953Z,1.39
2018-03-01T09:17:39.150Z,1.75
2018-03-01T09:20:23.998Z,1.96
2018-03-01T09:22:57.155Z,1.63
2018-03-01T09:25:31.022Z,1.52
2018-03-01T09:28:26.438Z,1.48
2018-03-01T09:31:02.759Z,1.10
2018-03-01T09:33:38.318Z,1.26
2018-03-01T09:36:11.720Z,1.50
2018-03-01T09:38:44.410Z,1.60
2018-03-01T09:41:18.601Z,1.82
2018-03-01T09:44:01.595Z,2.10
2018-03-01T09:46:39.402Z,2.31
2018-03-01T09:49:12.338Z,2.39
2018-03-01T09:51:46.706Z,2.65
2018-03-01T09:54:22.528Z,2.97
2018-03-01T09:56:55.569Z,3.14
2018-03-01T09:59:28.833Z,3.37
2018-03-01T10:04:51.400Z,3.15
2018-03-01T10:07:27.992Z,3.53
2018-03-01T10:10:13.101Z,4.00
2018-03-01T10:12:48.468Z,3.96
2018-03-01T10:15:33.357Z,4.55
2018-03-01T10:18:10.418Z,4.67
2018-03-01T10:20:45.784Z,5.38
2018-03-01T10:23:20.178Z,5.83
2018-03-01T10:25:52.059Z,6.15
2018-03-01T10:28:27.055Z,6.33
2018-03-01T10:31:12.381Z,6.43
2018-03-01T10:36:42.360Z,6.28
2018-03-01T10:39:16.248Z,6.34
2018-03-01T10:41:48.708Z,5.93
2018-03-01T10:44:20.427Z,5.81
2018-03-01T10:46:55.332Z,6.21
2018-03-01T10:49:28.326Z,6.57
2018-03-01T10:52:20.961Z,6.42
2018-03-01T10:55:08.488Z,6.56
2018-03-01T10:57:43.523Z,5.97
2018-03-01T11:00:25.081Z,5.60
2018-03-01T11:03:12.540Z,5.21
2018-03-01T11:05:44.478Z,4.96
2018-03-01T11:08:15.492Z,4.65
2018-03-01T11:10:47.996Z,4.49
2018-03-01T11:13:26.753Z,4.50
2018-03-01T11:16:00.178Z,4.20
2018-03-01T11:18:33.683Z,4.10
2018-03-01T11:21:26.657Z,4.03
2018-03-01T11:23:57.750Z,3.95
2018-03-01T11:26:29.558Z,4.23
2018-03-01T11:29:05.461Z,4.45
2018-03-01T11:31:47.607Z,4.12
2018-03-01T11:34:26.039Z,3.80
2018-03-01T11:39:44.334Z,4.39
2018-03-01T11:42:16.776Z,4.34
2018-03-01T11:44:48.142Z,4.74
2018-03-01T11:47:21.990Z,4.65
2018-03-01T11:49:54.186Z,4.53
2018-03-01T11:52:25.766Z,4.65
2018-03-01T11:55:00.946Z,5.02
2018-03-01T11:57:32.221Z,5.01
2018-03-01T12:00:09.484Z,5.42
2018-03-01T12:05:25.903Z,5.66
2018-03-01T12:07:59.177Z,5.89
2018-03-01T12:10:30.844Z,6.01
2018-03-01T12:13:07.416Z,6.21
2018-03-01T12:15:40.493Z,6.49
2018-03-01T12:18:13.293Z,6.64
2018-03-01T12:20:44.592Z,6.69
2018-03-01T12:23:24.635Z,6.04
2018-03-01T12:25:58.198Z,7.07
2018-03-01T12:28:29.389Z,6.62
2018-03-01T12:31:01.239Z,6.41
2018-03-01T12:33:32.336Z,6.70
2018-03-01T12:38:44.239Z,6.26
2018-03-01T12:41:21.264Z,6.24
2018-03-01T12:43:52.792Z,6.34
2018-03-01T12:46:23.935Z,6.55
2018-03-01T12:49:02.425Z,6.84
2018-03-01T12:51:35.250Z,6.94
2018-03-01T12:54:08.660Z,7.22
2018-03-01T12:56:41.949Z,6.98
2018-03-01T12:59:14.273Z,6.70
2018-03-01T13:01:47.072Z,6.67
2018-03-01T13:04:20.491Z,6.52
2018-03-01T13:06:52.466Z,6.24
2018-03-01T13:09:23.905Z,6.52
2018-03-01T13:11:54.890Z,6.29
2018-03-01T13:14:26.022Z,6.32
2018-03-01T13:16:57.355Z,6.11
2018-03-01T13:19:28.458Z,5.88
2018-03-01T13:22:06.204Z,5.94
2018-03-01T13:24:38.054Z,6.08
2018-03-01T13:27:11.247Z,5.81
2018-03-01T13:29:43.301Z,5.86
2018-03-01T13:32:15.599Z,5.85
2018-03-01T13:37:30.718Z,6.04
2018-03-01T13:40:04.085Z,6.03
2018-03-01T13:42:39.768Z,6.04
2018-03-01T13:45:22.187Z,5.83
2018-03-01T13:48:00.121Z,5.88
2018-03-01T13:50:32.823Z,5.79
2018-03-01T13:53:07.450Z,5.90
2018-03-01T13:55:44.228Z,5.85
2018-03-01T13:58:16.039Z,5.80
2018-03-01T14:00:47.492Z,5.62
2018-03-01T14:03:19.798Z,5.68
2018-03-01T14:05:51.613Z,5.49
2018-03-01T14:08:23.364Z,5.54
2018-03-01T14:10:54.945Z,5.71
2018-03-01T14:13:29.405Z,5.39
2018-03-01T14:16:00.955Z,5.36
2018-03-01T14:18:34.243Z,5.29
2018-03-01T14:21:08.158Z,5.43
2018-03-01T14:23:39.790Z,5.20
2018-03-01T14:26:11.298Z,5.17
2018-03-01T14:28:42.570Z,4.94
2018-03-01T14:31:14.216Z,5.13
2018-03-01T14:33:46.702Z,5.18
2018-03-01T14:36:20.231Z,5.26
2018-03-01T14:38:51.572Z,5.07
2018-03-01T14:41:30.940Z,5.16
2018-03-01T14:44:04.452Z,5.16
2018-03-01T14:46:36.723Z,5.28
2018-03-01T14:49:07.754Z,5.15
2018-03-01T14:51:38.555Z,5.01
2018-03-01T14:54:10.996Z,5.27
2018-03-01T14:57:01.932Z,5.15
2018-03-01T14:59:50.665Z,5.07
2018-03-01T15:02:46.390Z,4.83
2018-03-01T15:07:59.436Z,5.18
2018-03-01T15:10:30.655Z,5.16
2018-03-01T15:13:03.472Z,5.13
2018-03-01T15:15:43.395Z,5.11
2018-03-01T15:18:14.579Z,5.02
2018-03-01T15:20:47.070Z,4.92
2018-03-01T15:23:17.869Z,4.70
2018-03-01T15:25:49.025Z,4.74
2018-03-01T15:28:20.236Z,4.76
2018-03-01T15:30:51.298Z,4.72
2018-03-01T15:33:22.217Z,4.66
2018-03-01T15:36:22.987Z,4.47
2018-03-01T15:38:55.889Z,4.27
2018-03-01T15:41:39.222Z,4.22
2018-03-01T15:44:11.878Z,4.29
2018-03-01T15:46:43.804Z,4.49
2018-03-01T15:49:14.813Z,4.46
2018-03-01T15:51:46.682Z,4.58
2018-03-01T15:54:18.199Z,4.50
2018-03-01T15:56:49.675Z,4.51
2018-03-01T15:59:21.055Z,4.31
2018-03-01T16:01:56.957Z,4.22
2018-03-01T16:04:40.055Z,3.95
2018-03-01T16:07:12.178Z,3.98
2018-03-01T16:09:43.620Z,3.89
2018-03-01T16:12:14.401Z,3.84
2018-03-01T16:14:46.042Z,3.83
2018-03-01T16:17:17.397Z,3.76
2018-03-01T16:19:48.643Z,3.76
2018-03-01T16:22:20.397Z,3.80
2018-03-01T16:27:51.478Z,3.70
2018-03-01T16:30:23.931Z,3.68
2018-03-01T16:32:54.825Z,3.49
2018-03-01T16:40:57.981Z,3.41
2018-03-01T16:43:28.612Z,3.35
2018-03-01T16:46:00.623Z,3.27
2018-03-01T16:48:44.582Z,3.30
2018-03-01T16:51:18.211Z,3.23
2018-03-01T16:53:49.008Z,3.24
2018-03-01T16:56:20.454Z,3.39
2018-03-01T16:58:52.054Z,3.29
2018-03-01T17:01:33.826Z,3.35
2018-03-01T17:04:16.211Z,3.46
2018-03-01T17:06:47.367Z,3.15
2018-03-01T17:09:19.990Z,3.12
2018-03-01T17:12:05.795Z,3.16
2018-03-01T17:14:38.048Z,3.08
2018-03-01T17:17:09.316Z,3.05
2018-03-01T17:19:51.175Z,2.93
2018-03-01T17:22:22.546Z,2.96
2018-03-01T17:24:53.858Z,2.85
2018-03-01T17:27:26.066Z,2.96
2018-03-01T17:30:04.384Z,2.84
2018-03-01T17:32:47.237Z,2.70
2018-03-01T17:35:18.521Z,2.59
2018-03-01T17:37:49.906Z,2.57
2018-03-01T17:40:21.072Z,2.58
2018-03-01T17:42:52.392Z,2.52
2018-03-01T17:45:24.687Z,2.47
2018-03-01T17:47:56.712Z,2.46
2018-03-01T17:50:27.608Z,2.38
2018-03-01T17:52:59.550Z,2.35
2018-03-01T17:58:08.262Z,2.28
2018-03-01T18:00:51.612Z,2.32
2018-03-01T18:03:43.399Z,2.19
2018-03-01T18:06:14.915Z,2.33
2018-03-01T18:08:45.741Z,2.20
2018-03-01T18:11:16.829Z,2.14
2018-03-01T18:13:47.515Z,2.23
2018-03-01T18:16:18.506Z,2.22
2018-03-01T18:18:49.584Z,2.27
2018-03-01T18:21:52.696Z,2.19
2018-03-01T18:24:23.929Z,2.15
2018-03-01T18:26:55.571Z,1.98
2018-03-01T18:29:27.116Z,2.13
2018-03-01T18:32:02.046Z,1.97
2018-03-01T18:34:35.911Z,1.95
2018-03-01T18:37:09.967Z,1.95
2018-03-01T18:39:44.181Z,1.98
2018-03-01T18:42:24.605Z,1.90
2018-03-01T18:44:57.525Z,1.89
2018-03-01T18:47:30.618Z,1.97
2018-03-01T18:50:09.597Z,1.89
2018-03-01T18:55:35.670Z,1.80
2018-03-01T18:58:18.248Z,1.86
2018-03-01T19:00:56.256Z,1.81
2018-03-01T19:03:39.119Z,1.83
2018-03-01T19:06:23.184Z,1.84
2018-03-01T19:08:55.045Z,1.72
2018-03-01T19:11:28.340Z,1.59
2018-03-01T19:13:59.947Z,1.53
2018-03-01T19:16:31.100Z,1.51
2018-03-01T19:19:03.233Z,1.40
2018-03-01T19:21:36.717Z,1.42
2018-03-01T19:24:08.749Z,1.40
2018-03-01T19:26:39.800Z,1.36
2018-03-01T19:29:26.839Z,1.34
2018-03-01T19:32:01.708Z,1.24
2018-03-01T19:34:35.330Z,1.03
2018-03-01T19:37:13.635Z,1.38
2018-03-01T19:39:49.146Z,1.26
2018-03-01T19:42:32.281Z,1.22
2018-03-01T19:45:32.634Z,1.23
2018-03-01T19:48:14.548Z,1.31
2018-03-01T19:50:50.660Z,1.23
2018-03-01T19:56:11.247Z,1.02
2018-03-01T19:58:49.089Z,1.06
2018-03-01T20:01:29.760Z,1.21
2018-03-01T20:04:03.030Z,1.13
2018-03-01T20:06:34.952Z,1.10
2018-03-01T20:09:10.215Z,1.19
2018-03-01T20:11:43.133Z,1.09
2018-03-01T20:14:17.351Z,1.11
2018-03-01T20:16:49.434Z,1.06
2018-03-01T20:19:23.515Z,1.07
2018-03-01T20:21:54.316Z,0.96
2018-03-01T20:24:25.982Z,1.10
2018-03-01T20:26:57.136Z,1.03
2018-03-01T20:29:28.894Z,1.08
2018-03-01T20:32:01.714Z,1.03
2018-03-01T20:34:34.664Z,1.01
2018-03-01T20:37:06.594Z,0.99
2018-03-01T20:39:37.921Z,0.97
2018-03-01T20:42:09.503Z,0.97
2018-03-01T20:44:41.185Z,0.94
2018-03-01T20:47:14.238Z,0.95
2018-03-01T20:49:52.525Z,0.93
2018-03-01T20:52:25.684Z,0.93
2018-03-01T20:57:55.735Z,0.90
2018-03-01T21:00:29.686Z,0.83
2018-03-01T21:03:01.957Z,0.85
2018-03-01T21:05:34.051Z,0.86
2018-03-01T21:08:07.479Z,0.81
2018-03-01T21:10:38.575Z,0.71
2018-03-01T21:13:10.731Z,0.66
2018-03-01T21:15:43.527Z,0.71
2018-03-01T21:18:15.027Z,0.75
2018-03-01T21:20:51.508Z,0.79
2018-03-01T21:23:28.981Z,0.82
2018-03-01T21:25:59.954Z,0.76
2018-03-01T21:28:34.904Z,0.77
2018-03-01T21:31:19.733Z,0.76
2018-03-01T21:33:56.785Z,0.76
2018-03-01T21:36:27.916Z,0.70
2018-03-01T21:38:58.620Z,0.66
2018-03-01T21:41:29.948Z,0.63
2018-03-01T21:44:01.684Z,0.60
2018-03-01T21:46:45.266Z,0.63
2018-03-01T21:49:16.268Z,0.61
2018-03-01T21:51:49.325Z,0.63
2018-03-01T21:54:23.187Z,0.60
2018-03-01T21:56:55.732Z,0.67
2018-03-01T21:59:32.306Z,0.71
2018-03-01T22:02:03.951Z,0.57
2018-03-01T22:04:35.510Z,0.55
2018-03-01T22:07:11.258Z,0.61
2018-03-01T22:09:56.842Z,0.60
2018-03-01T22:12:28.279Z,0.68
2018-03-01T22:15:05.031Z,0.74
2018-03-01T22:20:23.995Z,0.65
2018-03-01T22:24:10.631Z,0.63
2018-03-01T22:26:43.035Z,0.60
2018-03-01T22:29:19.210Z,0.68
2018-03-01T22:31:53.666Z,0.62
2018-03-01T22:34:26.205Z,0.58
2018-03-01T22:37:02.415Z,0.58
2018-03-01T22:39:41.437Z,0.59
2018-03-01T22:42:14.803Z,0.65
2018-03-01T22:44:49.040Z,0.58
2018-03-01T22:47:30.563Z,0.44
2018-03-01T22:50:02.454Z,0.51
2018-03-01T22:52:34.352Z,0.50
2018-03-01T22:55:08.238Z,0.51
2018-03-01T22:57:45.004Z,0.41
2018-03-01T23:00:47.052Z,0.35
2018-03-01T23:03:51.331Z,0.35
2018-03-01T23:06:23.241Z,0.43
2018-03-01T23:08:55.424Z,0.35
2018-03-01T23:11:28.750Z,0.43
2018-03-01T23:14:00.294Z,0.37
2018-03-01T23:16:33.767Z,0.43
2018-03-01T23:19:06.417Z,0.36
2018-03-01T23:21:38.367Z,0.32
2018-03-01T23:24:09.706Z,0.38
2018-03-01T23:26:40.711Z,0.28
2018-03-01T23:29:13.188Z,0.24
2018-03-01T23:31:45.418Z,0.19
2018-03-01T23:34:17.243Z,0.19
2018-03-01T23:36:50.451Z,0.21
2018-03-01T23:39:34.085Z,0.28
2018-03-01T23:42:07.701Z,0.25
2018-03-01T23:44:43.029Z,0.27
2018-03-01T23:47:23.312Z,0.14
2018-03-01T23:49:59.166Z,0.03
2018-03-01T23:55:09.633Z,0.07
2018-03-01T23:57:40.527Z,-0.04
